PILOTS ONLINE: 338    ATC ONLINE: 53

KHYA

Barnstable Municipal Boardman Polando Field

Location

IATA HYA
City Hyannis
Country  United States
Latitude 41° 40' 9" N
Longitude 70° 16' 49" W
Elevation 54 ft
Type Medium Airport

Map

Weather

METAR
2014/09/16 20:56
KHYA 162056Z 19007KT 10SM OVC055 19/12 A2994 RMK AO2 SLP140 T01890117 56006
TAF
2014/09/16 20:12
TAF 
      AMD KHYA 162006Z 1620/1718 16007KT P6SM BKN050 
     FM162300 19006KT P6SM BKN050 
     FM170400 VRB03KT P6SM SCT035 
     FM171000 34005KT P6SM FEW250 
     FM171300 01006KT P6SM SCT040

Runways

06/24 5425 ft / 150 ft
15/33 5252 ft / 150 ft

Outbound flights

Callsign Flying to Pilot ATD/STD ETA Aircraft

Inbound flights

Callsign Flying from Pilot ATD ETA Aircraft